createdAt,value
2018-12-06T00:00:22.553Z,11.57
2018-12-06T00:05:25.127Z,11.97
2018-12-06T00:10:27.764Z,11.60
2018-12-06T00:15:30.381Z,10.83
2018-12-06T00:20:32.927Z,11.17
2018-12-06T00:25:35.555Z,12.20
2018-12-06T00:30:38.828Z,11.10
2018-12-06T00:35:41.406Z,10.33
2018-12-06T00:40:44.050Z,9.07
2018-12-06T00:45:46.621Z,9.50
2018-12-06T00:50:49.288Z,10.23
2018-12-06T00:55:52.468Z,9.80
2018-12-06T01:00:55.862Z,12.10
2018-12-06T01:06:00.130Z,12.13
2018-12-06T01:11:02.830Z,10.35
2018-12-06T01:16:05.420Z,8.90
2018-12-06T01:21:08.088Z,10.67
2018-12-06T01:26:11.218Z,11.80
2018-12-06T01:31:13.865Z,8.83
2018-12-06T01:36:16.446Z,11.53
2018-12-06T01:41:18.985Z,9.23
2018-12-06T01:46:21.551Z,9.93
2018-12-06T01:51:24.133Z,11.77
2018-12-06T01:56:26.762Z,13.03
2018-12-06T02:01:29.334Z,9.93
2018-12-06T02:06:31.901Z,11.50
2018-12-06T02:11:34.542Z,10.08
2018-12-06T02:16:37.875Z,9.47
2018-12-06T02:21:40.625Z,10.40
2018-12-06T02:26:43.278Z,10.93
2018-12-06T02:31:47.030Z,9.37
2018-12-06T02:36:49.576Z,10.00
2018-12-06T02:41:52.890Z,8.23
2018-12-06T02:46:55.477Z,7.93
2018-12-06T02:51:59.282Z,9.23
2018-12-06T02:57:01.897Z,9.20
2018-12-06T03:02:04.670Z,7.67
2018-12-06T03:07:07.268Z,13.10
2018-12-06T03:12:09.831Z,8.43
2018-12-06T03:17:12.410Z,9.07
2018-12-06T03:22:15.024Z,7.30
2018-12-06T03:27:17.592Z,8.63
2018-12-06T03:32:20.143Z,7.27
2018-12-06T03:37:22.684Z,7.07
2018-12-06T03:42:25.258Z,6.45
2018-12-06T03:47:27.894Z,7.53
2018-12-06T03:52:30.582Z,6.27
2018-12-06T03:57:33.177Z,6.30
2018-12-06T04:02:35.816Z,6.77
2018-12-06T04:07:38.440Z,5.53
2018-12-06T04:12:41.067Z,6.23
2018-12-06T04:17:43.739Z,8.17
2018-12-06T04:22:46.318Z,7.67
2018-12-06T04:27:48.887Z,8.23
2018-12-06T04:32:51.523Z,5.70
2018-12-06T04:37:54.093Z,6.33
2018-12-06T04:42:56.688Z,6.83
2018-12-06T04:47:59.303Z,8.10
2018-12-06T04:53:01.929Z,8.13
2018-12-06T04:58:06.021Z,8.47
2018-12-06T05:03:08.581Z,11.57
2018-12-06T05:08:11.989Z,9.37
2018-12-06T05:13:14.644Z,9.80
2018-12-06T05:18:17.385Z,9.37
2018-12-06T05:23:19.978Z,9.93
2018-12-06T05:28:22.555Z,10.33
2018-12-06T05:33:25.133Z,12.13
2018-12-06T05:38:28.630Z,10.43
2018-12-06T05:43:31.239Z,8.23
2018-12-06T05:48:34.488Z,7.63
2018-12-06T05:53:37.438Z,10.03
2018-12-06T05:58:40.062Z,8.43
2018-12-06T06:03:43.544Z,9.40
2018-12-06T06:08:46.328Z,9.00
2018-12-06T06:13:48.955Z,9.97
2018-12-06T06:18:51.596Z,10.70
2018-12-06T06:23:54.294Z,8.50
2018-12-06T06:28:57.486Z,10.17
2018-12-06T06:34:00.594Z,9.10
2018-12-06T06:39:04.223Z,11.60
2018-12-06T06:44:06.791Z,8.80
2018-12-06T06:49:13.760Z,8.67
2018-12-06T06:54:17.029Z,11.37
2018-12-06T06:59:25.809Z,8.50
2018-12-06T07:04:24.291Z,10.17
2018-12-06T07:09:26.846Z,9.90
2018-12-06T07:14:29.989Z,10.10
2018-12-06T07:19:32.811Z,7.90
2018-12-06T07:24:36.065Z,10.50
2018-12-06T07:29:38.607Z,8.83
2018-12-06T07:34:41.202Z,19.33
2018-12-06T07:39:43.778Z,9.77
2018-12-06T07:44:47.264Z,7.17
2018-12-06T07:49:50.478Z,8.13
2018-12-06T07:54:53.089Z,9.97
2018-12-06T07:59:56.394Z,10.20
2018-12-06T08:04:59.786Z,9.57
2018-12-06T08:10:02.366Z,9.90
2018-12-06T08:15:06.390Z,8.63
2018-12-06T08:20:09.721Z,10.60
2018-12-06T08:25:12.371Z,8.30
2018-12-06T08:30:14.924Z,9.63
2018-12-06T08:35:17.599Z,10.90
2018-12-06T08:40:20.337Z,8.80
2018-12-06T08:45:22.912Z,9.23
2018-12-06T08:50:25.500Z,10.03
2018-12-06T08:55:28.082Z,8.93
2018-12-06T09:00:30.673Z,11.20
2018-12-06T09:05:33.209Z,10.43
2018-12-06T09:10:36.303Z,12.28
2018-12-06T09:15:39.371Z,8.27
2018-12-06T09:20:43.702Z,11.00
2018-12-06T09:25:46.441Z,11.63
2018-12-06T09:30:49.132Z,8.93
2018-12-06T09:35:51.777Z,9.77
2018-12-06T09:40:54.373Z,10.20
2018-12-06T09:45:57.924Z,11.40
2018-12-06T09:51:00.568Z,9.83
2018-12-06T09:56:03.864Z,9.47
2018-12-06T10:01:06.496Z,12.13
2018-12-06T10:06:09.101Z,10.80
2018-12-06T10:11:11.700Z,15.30
2018-12-06T10:16:14.255Z,10.07
2018-12-06T10:21:17.797Z,11.18
2018-12-06T10:26:20.397Z,13.57
2018-12-06T10:31:22.976Z,10.67
2018-12-06T10:36:26.166Z,10.90
2018-12-06T10:41:28.864Z,12.47
2018-12-06T10:46:31.459Z,11.73
2018-12-06T10:51:40.575Z,17.20
2018-12-06T10:56:43.136Z,14.37
2018-12-06T11:01:47.833Z,13.40
2018-12-06T11:06:50.447Z,8.37
2018-12-06T11:11:53.032Z,16.80
2018-12-06T11:16:57.097Z,10.70
2018-12-06T11:22:00.553Z,14.20
2018-12-06T11:27:03.261Z,10.17
2018-12-06T11:32:05.879Z,11.10
2018-12-06T11:37:08.535Z,12.70
2018-12-06T11:42:11.172Z,9.93
2018-12-06T11:47:13.810Z,14.63
2018-12-06T11:52:16.998Z,13.13
2018-12-06T11:57:19.588Z,12.77
2018-12-06T12:02:22.181Z,15.43
2018-12-06T12:07:24.863Z,11.57
2018-12-06T12:12:27.760Z,13.17
2018-12-06T12:17:30.422Z,12.60
2018-12-06T12:22:33.093Z,13.88
2018-12-06T12:27:35.646Z,13.00
2018-12-06T12:32:38.260Z,12.10
2018-12-06T12:37:40.788Z,10.70
2018-12-06T12:42:43.349Z,16.60
2018-12-06T12:47:45.922Z,12.97
2018-12-06T12:52:49.242Z,14.80
2018-12-06T12:57:52.030Z,14.00
2018-12-06T13:02:54.740Z,12.43
2018-12-06T13:07:57.437Z,11.10
2018-12-06T13:13:01.807Z,12.07
2018-12-06T13:18:04.499Z,10.93
2018-12-06T13:23:07.178Z,15.53
2018-12-06T13:28:09.768Z,12.77
2018-12-06T13:33:13.094Z,16.03
2018-12-06T13:38:16.572Z,16.17
2018-12-06T13:43:19.260Z,15.80
2018-12-06T13:48:21.997Z,12.97
2018-12-06T13:53:24.633Z,15.93
2018-12-06T13:58:27.207Z,15.53
2018-12-06T14:03:29.813Z,16.63
2018-12-06T14:08:32.424Z,18.07
2018-12-06T14:13:35.112Z,20.40
2018-12-06T14:18:37.696Z,18.03
2018-12-06T14:23:40.341Z,20.33
2018-12-06T14:28:42.921Z,18.10
2018-12-06T14:33:45.557Z,16.37
2018-12-06T14:38:48.136Z,18.90
2018-12-06T14:43:50.701Z,17.03
2018-12-06T14:48:53.289Z,18.57
2018-12-06T14:53:55.872Z,23.30
2018-12-06T14:58:58.438Z,23.30
2018-12-06T15:04:01.158Z,19.00
2018-12-06T15:09:06.650Z,23.63
2018-12-06T15:14:09.314Z,21.80
2018-12-06T15:19:11.934Z,22.47
2018-12-06T15:24:14.635Z,23.47
2018-12-06T15:29:17.319Z,22.53
2018-12-06T15:34:19.980Z,19.60
2018-12-06T15:39:22.588Z,22.97
2018-12-06T15:44:25.747Z,23.63
2018-12-06T15:49:28.321Z,24.83
2018-12-06T15:54:30.869Z,23.60
2018-12-06T15:59:33.465Z,24.57
2018-12-06T16:04:36.013Z,25.05
2018-12-06T16:09:38.643Z,18.80
2018-12-06T16:14:41.270Z,20.87
2018-12-06T16:19:43.925Z,24.70
2018-12-06T16:24:47.210Z,21.83
2018-12-06T16:29:51.552Z,22.33
2018-12-06T16:34:55.651Z,20.75
2018-12-06T16:39:58.245Z,23.53
2018-12-06T16:45:00.783Z,21.95
2018-12-06T16:50:04.378Z,19.17
2018-12-06T16:55:07.099Z,23.25
2018-12-06T17:00:11.355Z,20.77
2018-12-06T17:05:13.892Z,21.37
2018-12-06T17:10:16.549Z,23.03
2018-12-06T17:15:19.139Z,23.10
2018-12-06T17:20:22.315Z,23.70
2018-12-06T17:25:25.173Z,22.80
2018-12-06T17:30:27.903Z,23.23
2018-12-06T17:35:30.654Z,23.13
2018-12-06T17:40:33.480Z,24.43
2018-12-06T17:45:36.157Z,21.10
2018-12-06T17:50:39.369Z,20.90
2018-12-06T17:55:49.910Z,22.93
2018-12-06T18:00:52.468Z,23.37
2018-12-06T18:05:55.299Z,18.53
2018-12-06T18:10:58.259Z,23.40
2018-12-06T18:16:00.911Z,21.43
2018-12-06T18:21:03.482Z,22.33
2018-12-06T18:26:06.116Z,19.53
2018-12-06T18:31:09.499Z,24.07
2018-12-06T18:36:12.148Z,20.23
2018-12-06T18:41:14.940Z,20.07
2018-12-06T18:46:18.219Z,21.00
2018-12-06T18:51:20.832Z,24.50
2018-12-06T18:56:23.856Z,23.43
2018-12-06T19:01:26.453Z,21.10
2018-12-06T19:06:29.012Z,20.10
2018-12-06T19:11:32.578Z,22.77
2018-12-06T19:16:35.355Z,22.60
2018-12-06T19:21:38.039Z,21.77
2018-12-06T19:26:41.383Z,23.23
2018-12-06T19:31:44.027Z,24.70
2018-12-06T19:36:46.609Z,22.20
2018-12-06T19:41:49.372Z,23.53
2018-12-06T19:46:52.778Z,22.87
2018-12-06T19:51:55.413Z,23.77
2018-12-06T19:56:58.642Z,25.80
2018-12-06T20:02:01.285Z,54.03
2018-12-06T20:07:04.041Z,22.77
2018-12-06T20:12:06.650Z,31.13
2018-12-06T20:17:09.963Z,26.73
2018-12-06T20:22:38.830Z,27.80
2018-12-06T20:27:41.418Z,26.90
2018-12-06T20:32:44.034Z,24.30
2018-12-06T20:37:46.747Z,28.60
2018-12-06T20:42:49.386Z,23.37
2018-12-06T20:47:53.066Z,24.20
2018-12-06T20:52:55.664Z,25.77
2018-12-06T20:57:58.270Z,26.10
2018-12-06T21:03:00.883Z,28.60
2018-12-06T21:08:03.609Z,28.00
2018-12-06T21:13:06.171Z,27.53
2018-12-06T21:18:09.467Z,27.37
2018-12-06T21:23:12.216Z,28.47
2018-12-06T21:28:14.869Z,28.67
2018-12-06T21:33:17.474Z,25.23
2018-12-06T21:38:20.108Z,24.17
2018-12-06T21:43:22.909Z,29.48
2018-12-06T21:48:25.497Z,25.70
2018-12-06T21:53:28.171Z,26.67
2018-12-06T21:58:30.769Z,24.57
2018-12-06T22:03:33.954Z,26.73
2018-12-06T22:08:36.519Z,27.70
2018-12-06T22:13:39.443Z,25.50
2018-12-06T22:18:42.099Z,27.30
2018-12-06T22:23:45.287Z,25.63
2018-12-06T22:28:47.912Z,26.95
2018-12-06T22:33:50.658Z,27.07
2018-12-06T22:38:53.269Z,27.73
2018-12-06T22:43:55.834Z,24.93
2018-12-06T22:48:58.422Z,22.70
2018-12-06T22:54:01.721Z,27.00
2018-12-06T22:59:05.058Z,26.33
2018-12-06T23:04:07.967Z,28.40
2018-12-06T23:09:10.588Z,24.43
2018-12-06T23:14:14.091Z,28.80
2018-12-06T23:19:17.341Z,29.17
2018-12-06T23:24:19.934Z,28.33
2018-12-06T23:29:22.567Z,27.90
2018-12-06T23:34:25.742Z,23.30
2018-12-06T23:39:28.443Z,29.30
2018-12-06T23:44:31.170Z,26.50
2018-12-06T23:49:33.760Z,27.30
2018-12-06T23:54:36.325Z,25.30
2018-12-06T23:59:38.878Z,27.80
